sensor_id;sensor_type;location;lat;lon;timestamp;P1;durP1;ratioP1;P2;durP2;ratioP2
69334;SDS011;56477;52.742;15.242;2023-07-13T00:02:23;3.70;;;2.30;;
69334;SDS011;56477;52.742;15.242;2023-07-13T00:04:50;4.00;;;1.98;;
69334;SDS011;56477;52.742;15.242;2023-07-13T00:07:15;5.70;;;2.43;;
69334;SDS011;56477;52.742;15.242;2023-07-13T00:09:46;3.80;;;2.20;;
69334;SDS011;56477;52.742;15.242;2023-07-13T00:12:22;3.88;;;2.20;;
69334;SDS011;56477;52.742;15.242;2023-07-13T00:14:51;4.72;;;1.92;;
69334;SDS011;56477;52.742;15.242;2023-07-13T00:17:16;4.27;;;2.20;;
69334;SDS011;56477;52.742;15.242;2023-07-13T00:19:42;4.22;;;2.20;;
69334;SDS011;56477;52.742;15.242;2023-07-13T00:22:08;4.43;;;2.17;;
69334;SDS011;56477;52.742;15.242;2023-07-13T00:24:34;5.07;;;2.13;;
69334;SDS011;56477;52.742;15.242;2023-07-13T00:27:01;4.03;;;2.42;;
69334;SDS011;56477;52.742;15.242;2023-07-13T00:29:27;5.63;;;2.53;;
69334;SDS011;56477;52.742;15.242;2023-07-13T00:31:53;3.90;;;2.00;;
69334;SDS011;56477;52.742;15.242;2023-07-13T00:34:19;3.63;;;2.05;;
69334;SDS011;56477;52.742;15.242;2023-07-13T00:36:44;4.68;;;2.17;;
69334;SDS011;56477;52.742;15.242;2023-07-13T00:39:10;9.95;;;2.13;;
69334;SDS011;56477;52.742;15.242;2023-07-13T00:41:36;3.87;;;2.20;;
69334;SDS011;56477;52.742;15.242;2023-07-13T00:44:02;5.45;;;2.63;;
69334;SDS011;56477;52.742;15.242;2023-07-13T00:46:29;4.90;;;2.20;;
69334;SDS011;56477;52.742;15.242;2023-07-13T00:48:58;4.50;;;2.25;;
69334;SDS011;56477;52.742;15.242;2023-07-13T00:51:30;5.37;;;2.10;;
69334;SDS011;56477;52.742;15.242;2023-07-13T00:54:00;3.22;;;2.30;;
69334;SDS011;56477;52.742;15.242;2023-07-13T00:56:32;6.25;;;2.85;;
69334;SDS011;56477;52.742;15.242;2023-07-13T00:58:59;5.28;;;2.58;;
69334;SDS011;56477;52.742;15.242;2023-07-13T01:01:27;5.90;;;2.45;;
69334;SDS011;56477;52.742;15.242;2023-07-13T01:03:53;3.70;;;2.00;;
69334;SDS011;56477;52.742;15.242;2023-07-13T01:06:19;4.05;;;2.22;;
69334;SDS011;56477;52.742;15.242;2023-07-13T01:08:45;4.38;;;2.05;;
69334;SDS011;56477;52.742;15.242;2023-07-13T01:11:11;5.77;;;2.47;;
69334;SDS011;56477;52.742;15.242;2023-07-13T01:13:37;4.95;;;2.08;;
69334;SDS011;56477;52.742;15.242;2023-07-13T01:16:05;3.75;;;2.40;;
69334;SDS011;56477;52.742;15.242;2023-07-13T01:18:40;6.95;;;2.17;;
69334;SDS011;56477;52.742;15.242;2023-07-13T01:21:06;4.13;;;2.40;;
69334;SDS011;56477;52.742;15.242;2023-07-13T01:23:32;3.72;;;2.10;;
69334;SDS011;56477;52.742;15.242;2023-07-13T01:25:58;4.78;;;2.60;;
69334;SDS011;56477;52.742;15.242;2023-07-13T01:28:26;5.40;;;2.55;;
69334;SDS011;56477;52.742;15.242;2023-07-13T01:30:53;4.00;;;2.23;;
69334;SDS011;56477;52.742;15.242;2023-07-13T01:33:21;5.57;;;2.40;;
69334;SDS011;56477;52.742;15.242;2023-07-13T01:35:47;5.75;;;2.60;;
69334;SDS011;56477;52.742;15.242;2023-07-13T01:38:14;5.00;;;2.47;;
69334;SDS011;56477;52.742;15.242;2023-07-13T01:40:40;3.77;;;2.20;;
69334;SDS011;56477;52.742;15.242;2023-07-13T01:43:07;5.25;;;2.45;;
69334;SDS011;56477;52.742;15.242;2023-07-13T01:45:33;4.32;;;2.22;;
69334;SDS011;56477;52.742;15.242;2023-07-13T01:47:59;4.55;;;2.40;;
69334;SDS011;56477;52.742;15.242;2023-07-13T01:50:25;4.18;;;2.50;;
69334;SDS011;56477;52.742;15.242;2023-07-13T01:52:52;6.33;;;2.80;;
69334;SDS011;56477;52.742;15.242;2023-07-13T01:55:19;4.72;;;2.28;;
69334;SDS011;56477;52.742;15.242;2023-07-13T01:57:46;5.90;;;2.72;;
69334;SDS011;56477;52.742;15.242;2023-07-13T02:00:12;5.13;;;2.27;;
69334;SDS011;56477;52.742;15.242;2023-07-13T02:02:39;4.63;;;2.13;;
69334;SDS011;56477;52.742;15.242;2023-07-13T02:05:05;5.00;;;2.58;;
69334;SDS011;56477;52.742;15.242;2023-07-13T02:07:32;5.70;;;2.50;;
69334;SDS011;56477;52.742;15.242;2023-07-13T02:09:58;4.70;;;2.50;;
69334;SDS011;56477;52.742;15.242;2023-07-13T02:12:24;5.43;;;2.40;;
69334;SDS011;56477;52.742;15.242;2023-07-13T02:28:35;4.72;;;2.70;;
69334;SDS011;56477;52.742;15.242;2023-07-13T02:31:08;5.38;;;2.63;;
69334;SDS011;56477;52.742;15.242;2023-07-13T02:33:36;4.60;;;2.38;;
69334;SDS011;56477;52.742;15.242;2023-07-13T02:36:02;4.73;;;2.30;;
69334;SDS011;56477;52.742;15.242;2023-07-13T02:38:31;5.53;;;2.50;;
69334;SDS011;56477;52.742;15.242;2023-07-13T02:40:59;6.32;;;2.78;;
69334;SDS011;56477;52.742;15.242;2023-07-13T02:43:26;4.30;;;2.30;;
69334;SDS011;56477;52.742;15.242;2023-07-13T02:45:53;4.47;;;2.40;;
69334;SDS011;56477;52.742;15.242;2023-07-13T02:48:18;4.60;;;2.90;;
69334;SDS011;56477;52.742;15.242;2023-07-13T02:50:44;9.35;;;2.67;;
69334;SDS011;56477;52.742;15.242;2023-07-13T02:53:10;5.32;;;2.67;;
69334;SDS011;56477;52.742;15.242;2023-07-13T02:55:36;6.13;;;2.50;;
69334;SDS011;56477;52.742;15.242;2023-07-13T02:58:02;4.45;;;2.53;;
69334;SDS011;56477;52.742;15.242;2023-07-13T03:00:28;5.57;;;2.45;;
69334;SDS011;56477;52.742;15.242;2023-07-13T03:02:54;6.27;;;2.60;;
69334;SDS011;56477;52.742;15.242;2023-07-13T03:05:23;3.38;;;2.30;;
69334;SDS011;56477;52.742;15.242;2023-07-13T03:07:49;6.00;;;2.45;;
69334;SDS011;56477;52.742;15.242;2023-07-13T03:10:15;4.60;;;2.50;;
69334;SDS011;56477;52.742;15.242;2023-07-13T03:12:41;3.97;;;2.58;;
69334;SDS011;56477;52.742;15.242;2023-07-13T03:18:32;6.63;;;2.35;;
69334;SDS011;56477;52.742;15.242;2023-07-13T03:21:16;5.55;;;2.78;;
69334;SDS011;56477;52.742;15.242;2023-07-13T03:24:01;5.28;;;2.47;;
69334;SDS011;56477;52.742;15.242;2023-07-13T03:26:45;4.78;;;2.60;;
69334;SDS011;56477;52.742;15.242;2023-07-13T03:29:11;4.83;;;2.30;;
69334;SDS011;56477;52.742;15.242;2023-07-13T03:31:37;5.82;;;2.75;;
69334;SDS011;56477;52.742;15.242;2023-07-13T03:34:04;7.60;;;2.85;;
69334;SDS011;56477;52.742;15.242;2023-07-13T03:36:30;5.63;;;2.30;;
69334;SDS011;56477;52.742;15.242;2023-07-13T03:38:58;5.87;;;2.57;;
69334;SDS011;56477;52.742;15.242;2023-07-13T03:41:26;4.30;;;2.55;;
69334;SDS011;56477;52.742;15.242;2023-07-13T03:43:52;5.38;;;2.60;;
69334;SDS011;56477;52.742;15.242;2023-07-13T03:46:36;4.57;;;2.45;;
69334;SDS011;56477;52.742;15.242;2023-07-13T03:49:03;4.18;;;2.42;;
69334;SDS011;56477;52.742;15.242;2023-07-13T03:51:30;5.23;;;2.50;;
69334;SDS011;56477;52.742;15.242;2023-07-13T03:53:56;5.53;;;2.55;;
69334;SDS011;56477;52.742;15.242;2023-07-13T03:56:22;5.80;;;2.70;;
69334;SDS011;56477;52.742;15.242;2023-07-13T03:58:49;6.53;;;2.78;;
69334;SDS011;56477;52.742;15.242;2023-07-13T04:01:16;4.22;;;2.53;;
69334;SDS011;56477;52.742;15.242;2023-07-13T04:03:44;6.17;;;2.60;;
69334;SDS011;56477;52.742;15.242;2023-07-13T04:06:15;6.60;;;2.63;;
69334;SDS011;56477;52.742;15.242;2023-07-13T04:08:50;4.80;;;2.70;;
69334;SDS011;56477;52.742;15.242;2023-07-13T04:11:21;6.32;;;2.78;;
69334;SDS011;56477;52.742;15.242;2023-07-13T04:13:48;5.30;;;3.05;;
69334;SDS011;56477;52.742;15.242;2023-07-13T04:16:15;5.27;;;3.10;;
69334;SDS011;56477;52.742;15.242;2023-07-13T04:18:43;5.45;;;3.17;;
69334;SDS011;56477;52.742;15.242;2023-07-13T04:21:09;5.65;;;2.70;;
69334;SDS011;56477;52.742;15.242;2023-07-13T04:23:38;4.55;;;2.58;;
69334;SDS011;56477;52.742;15.242;2023-07-13T04:26:05;9.35;;;3.30;;
69334;SDS011;56477;52.742;15.242;2023-07-13T04:28:31;6.60;;;2.70;;
69334;SDS011;56477;52.742;15.242;2023-07-13T04:30:57;4.95;;;2.65;;
69334;SDS011;56477;52.742;15.242;2023-07-13T04:33:23;5.18;;;2.38;;
69334;SDS011;56477;52.742;15.242;2023-07-13T04:35:50;5.47;;;2.55;;
69334;SDS011;56477;52.742;15.242;2023-07-13T04:38:22;5.80;;;2.60;;
69334;SDS011;56477;52.742;15.242;2023-07-13T04:40:50;7.07;;;3.15;;
69334;SDS011;56477;52.742;15.242;2023-07-13T04:43:17;6.13;;;2.28;;
69334;SDS011;56477;52.742;15.242;2023-07-13T04:45:43;5.38;;;2.30;;
69334;SDS011;56477;52.742;15.242;2023-07-13T04:48:09;6.28;;;2.53;;
69334;SDS011;56477;52.742;15.242;2023-07-13T04:50:36;4.40;;;2.60;;
69334;SDS011;56477;52.742;15.242;2023-07-13T04:53:02;6.05;;;2.22;;
69334;SDS011;56477;52.742;15.242;2023-07-13T04:55:29;5.97;;;2.45;;
69334;SDS011;56477;52.742;15.242;2023-07-13T04:58:14;3.97;;;2.40;;
69334;SDS011;56477;52.742;15.242;2023-07-13T05:01:05;7.50;;;2.50;;
69334;SDS011;56477;52.742;15.242;2023-07-13T05:03:49;5.88;;;2.13;;
69334;SDS011;56477;52.742;15.242;2023-07-13T05:06:33;3.40;;;2.50;;
69334;SDS011;56477;52.742;15.242;2023-07-13T05:09:17;5.10;;;2.78;;
69334;SDS011;56477;52.742;15.242;2023-07-13T05:12:01;3.87;;;2.20;;
69334;SDS011;56477;52.742;15.242;2023-07-13T05:14:45;5.32;;;2.45;;
69334;SDS011;56477;52.742;15.242;2023-07-13T05:17:48;4.80;;;2.20;;
69334;SDS011;56477;52.742;15.242;2023-07-13T05:20:15;3.95;;;1.85;;
69334;SDS011;56477;52.742;15.242;2023-07-13T05:22:42;11.68;;;2.83;;
69334;SDS011;56477;52.742;15.242;2023-07-13T05:25:08;3.93;;;1.90;;
69334;SDS011;56477;52.742;15.242;2023-07-13T05:27:35;3.35;;;2.03;;
69334;SDS011;56477;52.742;15.242;2023-07-13T05:30:02;5.03;;;1.98;;
69334;SDS011;56477;52.742;15.242;2023-07-13T05:32:29;6.82;;;2.50;;
69334;SDS011;56477;52.742;15.242;2023-07-13T05:34:55;6.22;;;2.45;;
69334;SDS011;56477;52.742;15.242;2023-07-13T05:37:21;5.53;;;2.53;;
69334;SDS011;56477;52.742;15.242;2023-07-13T05:39:47;8.50;;;2.90;;
69334;SDS011;56477;52.742;15.242;2023-07-13T05:42:13;4.63;;;2.53;;
69334;SDS011;56477;52.742;15.242;2023-07-13T05:44:39;8.90;;;3.20;;
69334;SDS011;56477;52.742;15.242;2023-07-13T05:47:04;6.40;;;3.00;;
69334;SDS011;56477;52.742;15.242;2023-07-13T05:49:31;5.35;;;2.50;;
69334;SDS011;56477;52.742;15.242;2023-07-13T05:51:57;7.20;;;2.90;;
69334;SDS011;56477;52.742;15.242;2023-07-13T05:54:23;6.25;;;3.10;;
69334;SDS011;56477;52.742;15.242;2023-07-13T05:56:48;4.43;;;2.78;;
69334;SDS011;56477;52.742;15.242;2023-07-13T05:59:15;6.63;;;2.75;;
69334;SDS011;56477;52.742;15.242;2023-07-13T06:01:41;11.37;;;3.10;;
69334;SDS011;56477;52.742;15.242;2023-07-13T06:04:07;4.65;;;2.67;;
69334;SDS011;56477;52.742;15.242;2023-07-13T06:06:33;5.93;;;2.60;;
69334;SDS011;56477;52.742;15.242;2023-07-13T06:08:59;6.00;;;3.20;;
69334;SDS011;56477;52.742;15.242;2023-07-13T06:11:25;5.32;;;2.80;;
69334;SDS011;56477;52.742;15.242;2023-07-13T06:13:53;6.07;;;2.92;;
69334;SDS011;56477;52.742;15.242;2023-07-13T06:16:19;4.75;;;2.80;;
69334;SDS011;56477;52.742;15.242;2023-07-13T06:18:46;5.20;;;2.30;;
69334;SDS011;56477;52.742;15.242;2023-07-13T06:21:19;3.72;;;2.47;;
69334;SDS011;56477;52.742;15.242;2023-07-13T06:23:47;5.10;;;2.40;;
69334;SDS011;56477;52.742;15.242;2023-07-13T06:26:14;4.32;;;2.50;;
69334;SDS011;56477;52.742;15.242;2023-07-13T06:28:40;5.75;;;2.80;;
69334;SDS011;56477;52.742;15.242;2023-07-13T06:31:06;6.23;;;2.50;;
69334;SDS011;56477;52.742;15.242;2023-07-13T06:33:34;7.07;;;2.50;;
69334;SDS011;56477;52.742;15.242;2023-07-13T06:36:01;5.05;;;2.50;;
69334;SDS011;56477;52.742;15.242;2023-07-13T06:38:28;4.72;;;2.70;;
69334;SDS011;56477;52.742;15.242;2023-07-13T06:40:54;4.63;;;2.40;;
69334;SDS011;56477;52.742;15.242;2023-07-13T06:43:20;7.07;;;2.38;;
69334;SDS011;56477;52.742;15.242;2023-07-13T06:45:46;5.32;;;2.53;;
69334;SDS011;56477;52.742;15.242;2023-07-13T06:48:15;4.10;;;2.33;;
69334;SDS011;56477;52.742;15.242;2023-07-13T06:50:42;3.40;;;2.25;;
69334;SDS011;56477;52.742;15.242;2023-07-13T06:53:09;4.57;;;2.13;;
69334;SDS011;56477;52.742;15.242;2023-07-13T06:55:35;5.32;;;2.20;;
69334;SDS011;56477;52.742;15.242;2023-07-13T06:58:01;3.55;;;2.30;;
69334;SDS011;56477;52.742;15.242;2023-07-13T07:00:27;3.93;;;1.70;;
69334;SDS011;56477;52.742;15.242;2023-07-13T07:02:53;3.08;;;1.38;;
69334;SDS011;56477;52.742;15.242;2023-07-13T07:05:19;4.32;;;1.90;;
69334;SDS011;56477;52.742;15.242;2023-07-13T07:07:50;7.77;;;1.67;;
69334;SDS011;56477;52.742;15.242;2023-07-13T07:10:20;4.18;;;1.83;;
69334;SDS011;56477;52.742;15.242;2023-07-13T07:12:47;4.00;;;2.10;;
69334;SDS011;56477;52.742;15.242;2023-07-13T07:15:12;4.80;;;1.77;;
69334;SDS011;56477;52.742;15.242;2023-07-13T07:17:39;3.10;;;1.50;;
69334;SDS011;56477;52.742;15.242;2023-07-13T07:20:05;10.13;;;1.83;;
69334;SDS011;56477;52.742;15.242;2023-07-13T07:22:32;3.95;;;2.30;;
69334;SDS011;56477;52.742;15.242;2023-07-13T07:24:58;3.63;;;1.90;;
69334;SDS011;56477;52.742;15.242;2023-07-13T07:27:24;3.13;;;1.95;;
69334;SDS011;56477;52.742;15.242;2023-07-13T07:29:50;3.30;;;1.40;;
69334;SDS011;56477;52.742;15.242;2023-07-13T07:32:16;3.08;;;1.50;;
69334;SDS011;56477;52.742;15.242;2023-07-13T07:34:42;2.28;;;1.35;;
69334;SDS011;56477;52.742;15.242;2023-07-13T07:37:12;4.07;;;1.63;;
69334;SDS011;56477;52.742;15.242;2023-07-13T07:39:39;3.95;;;1.77;;
69334;SDS011;56477;52.742;15.242;2023-07-13T07:42:05;2.37;;;1.60;;
69334;SDS011;56477;52.742;15.242;2023-07-13T07:44:32;4.40;;;1.40;;
69334;SDS011;56477;52.742;15.242;2023-07-13T07:46:58;5.18;;;2.53;;
69334;SDS011;56477;52.742;15.242;2023-07-13T07:49:24;2.47;;;1.65;;
69334;SDS011;56477;52.742;15.242;2023-07-13T07:51:50;3.20;;;1.50;;
69334;SDS011;56477;52.742;15.242;2023-07-13T07:54:16;2.63;;;1.60;;
69334;SDS011;56477;52.742;15.242;2023-07-13T07:56:43;3.90;;;1.20;;
69334;SDS011;56477;52.742;15.242;2023-07-13T07:59:09;2.53;;;1.20;;
69334;SDS011;56477;52.742;15.242;2023-07-13T08:01:35;2.72;;;1.15;;
69334;SDS011;56477;52.742;15.242;2023-07-13T08:04:01;2.75;;;1.20;;
69334;SDS011;56477;52.742;15.242;2023-07-13T08:06:28;5.53;;;3.30;;
69334;SDS011;56477;52.742;15.242;2023-07-13T08:08:54;2.63;;;1.63;;
69334;SDS011;56477;52.742;15.242;2023-07-13T08:11:21;7.00;;;1.50;;
69334;SDS011;56477;52.742;15.242;2023-07-13T08:13:47;3.58;;;1.70;;
69334;SDS011;56477;52.742;15.242;2023-07-13T08:16:15;2.05;;;1.48;;
69334;SDS011;56477;52.742;15.242;2023-07-13T08:18:41;2.78;;;1.33;;
69334;SDS011;56477;52.742;15.242;2023-07-13T08:21:08;2.60;;;1.60;;
69334;SDS011;56477;52.742;15.242;2023-07-13T08:23:34;3.92;;;1.85;;
69334;SDS011;56477;52.742;15.242;2023-07-13T08:26:01;2.83;;;1.30;;
69334;SDS011;56477;52.742;15.242;2023-07-13T08:28:28;2.07;;;1.30;;
69334;SDS011;56477;52.742;15.242;2023-07-13T08:30:54;3.60;;;1.70;;
69334;SDS011;56477;52.742;15.242;2023-07-13T08:33:21;4.07;;;1.40;;
69334;SDS011;56477;52.742;15.242;2023-07-13T08:35:51;3.30;;;1.75;;
69334;SDS011;56477;52.742;15.242;2023-07-13T08:38:17;2.58;;;1.67;;
69334;SDS011;56477;52.742;15.242;2023-07-13T08:40:53;3.00;;;1.45;;
69334;SDS011;56477;52.742;15.242;2023-07-13T08:43:22;2.13;;;1.30;;
69334;SDS011;56477;52.742;15.242;2023-07-13T08:45:53;2.20;;;1.60;;
69334;SDS011;56477;52.742;15.242;2023-07-13T08:48:36;3.03;;;1.13;;
69334;SDS011;56477;52.742;15.242;2023-07-13T08:54:02;3.95;;;1.60;;
69334;SDS011;56477;52.742;15.242;2023-07-13T08:56:31;2.17;;;1.55;;
69334;SDS011;56477;52.742;15.242;2023-07-13T08:59:00;3.65;;;1.60;;
69334;SDS011;56477;52.742;15.242;2023-07-13T09:01:51;2.65;;;1.50;;
69334;SDS011;56477;52.742;15.242;2023-07-13T09:04:27;2.15;;;1.58;;
69334;SDS011;56477;52.742;15.242;2023-07-13T09:12:31;3.25;;;0.90;;
69334;SDS011;56477;52.742;15.242;2023-07-13T09:15:06;2.72;;;1.40;;
69334;SDS011;56477;52.742;15.242;2023-07-13T09:18:07;1.70;;;1.40;;
69334;SDS011;56477;52.742;15.242;2023-07-13T09:20:36;2.10;;;1.33;;
69334;SDS011;56477;52.742;15.242;2023-07-13T09:23:16;3.83;;;1.10;;
69334;SDS011;56477;52.742;15.242;2023-07-13T09:25:45;2.65;;;1.48;;
69334;SDS011;56477;52.742;15.242;2023-07-13T09:28:18;3.33;;;1.27;;
69334;SDS011;56477;52.742;15.242;2023-07-13T09:33:29;6.10;;;1.60;;
69334;SDS011;56477;52.742;15.242;2023-07-13T09:35:56;4.40;;;1.83;;
69334;SDS011;56477;52.742;15.242;2023-07-13T09:38:24;2.60;;;1.13;;
69334;SDS011;56477;52.742;15.242;2023-07-13T09:43:36;2.28;;;1.00;;
69334;SDS011;56477;52.742;15.242;2023-07-13T09:46:02;3.33;;;1.17;;
69334;SDS011;56477;52.742;15.242;2023-07-13T09:48:36;2.05;;;1.05;;
69334;SDS011;56477;52.742;15.242;2023-07-13T09:51:13;3.08;;;1.50;;
69334;SDS011;56477;52.742;15.242;2023-07-13T09:53:41;4.25;;;2.67;;
69334;SDS011;56477;52.742;15.242;2023-07-13T09:56:21;2.80;;;1.52;;
69334;SDS011;56477;52.742;15.242;2023-07-13T09:58:49;3.00;;;1.23;;
69334;SDS011;56477;52.742;15.242;2023-07-13T10:01:15;2.50;;;1.30;;
69334;SDS011;56477;52.742;15.242;2023-07-13T10:03:52;2.23;;;1.00;;
69334;SDS011;56477;52.742;15.242;2023-07-13T10:06:19;2.40;;;1.20;;
69334;SDS011;56477;52.742;15.242;2023-07-13T10:08:50;4.40;;;1.40;;
69334;SDS011;56477;52.742;15.242;2023-07-13T10:11:20;4.10;;;0.90;;
69334;SDS011;56477;52.742;15.242;2023-07-13T10:16:23;2.80;;;1.60;;
69334;SDS011;56477;52.742;15.242;2023-07-13T10:19:02;2.77;;;0.90;;
69334;SDS011;56477;52.742;15.242;2023-07-13T10:21:34;2.23;;;0.97;;
69334;SDS011;56477;52.742;15.242;2023-07-13T10:24:11;2.85;;;0.90;;
69334;SDS011;56477;52.742;15.242;2023-07-13T10:26:43;4.38;;;1.27;;
69334;SDS011;56477;52.742;15.242;2023-07-13T10:29:32;3.42;;;1.15;;
69334;SDS011;56477;52.742;15.242;2023-07-13T10:32:02;3.03;;;0.77;;
69334;SDS011;56477;52.742;15.242;2023-07-13T10:34:35;4.67;;;1.10;;
69334;SDS011;56477;52.742;15.242;2023-07-13T10:37:01;2.73;;;1.00;;
69334;SDS011;56477;52.742;15.242;2023-07-13T10:39:28;1.98;;;1.10;;
69334;SDS011;56477;52.742;15.242;2023-07-13T10:41:55;2.92;;;0.98;;
69334;SDS011;56477;52.742;15.242;2023-07-13T10:44:30;3.05;;;1.05;;
69334;SDS011;56477;52.742;15.242;2023-07-13T10:47:01;3.60;;;1.15;;
69334;SDS011;56477;52.742;15.242;2023-07-13T10:49:32;1.90;;;0.80;;
69334;SDS011;56477;52.742;15.242;2023-07-13T10:52:00;12.43;;;1.83;;
69334;SDS011;56477;52.742;15.242;2023-07-13T10:57:14;3.35;;;1.52;;
69334;SDS011;56477;52.742;15.242;2023-07-13T10:59:46;4.10;;;1.38;;
69334;SDS011;56477;52.742;15.242;2023-07-13T11:02:33;8.77;;;1.30;;
69334;SDS011;56477;52.742;15.242;2023-07-13T11:05:00;3.67;;;1.33;;
69334;SDS011;56477;52.742;15.242;2023-07-13T11:07:56;2.30;;;1.10;;
69334;SDS011;56477;52.742;15.242;2023-07-13T11:16:48;3.42;;;1.10;;
69334;SDS011;56477;52.742;15.242;2023-07-13T11:18:52;5.18;;;1.95;;
69334;SDS011;56477;52.742;15.242;2023-07-13T11:21:34;2.63;;;1.55;;
69334;SDS011;56477;52.742;15.242;2023-07-13T11:24:13;2.37;;;1.43;;
69334;SDS011;56477;52.742;15.242;2023-07-13T11:32:20;2.05;;;1.42;;
69334;SDS011;56477;52.742;15.242;2023-07-13T11:34:47;2.72;;;1.60;;
69334;SDS011;56477;52.742;15.242;2023-07-13T11:37:15;3.05;;;1.05;;
69334;SDS011;56477;52.742;15.242;2023-07-13T11:39:42;2.30;;;1.30;;
69334;SDS011;56477;52.742;15.242;2023-07-13T11:42:15;3.03;;;1.40;;
69334;SDS011;56477;52.742;15.242;2023-07-13T11:44:45;3.00;;;1.10;;
69334;SDS011;56477;52.742;15.242;2023-07-13T11:47:22;2.65;;;1.50;;
69334;SDS011;56477;52.742;15.242;2023-07-13T11:49:49;2.80;;;1.50;;
69334;SDS011;56477;52.742;15.242;2023-07-13T11:52:23;4.38;;;1.48;;
69334;SDS011;56477;52.742;15.242;2023-07-13T11:55:00;2.58;;;1.20;;
69334;SDS011;56477;52.742;15.242;2023-07-13T11:57:32;3.30;;;1.30;;
69334;SDS011;56477;52.742;15.242;2023-07-13T12:00:01;4.35;;;1.42;;
69334;SDS011;56477;52.742;15.242;2023-07-13T12:02:49;2.65;;;1.40;;
69334;SDS011;56477;52.742;15.242;2023-07-13T12:05:18;2.75;;;1.80;;
69334;SDS011;56477;52.742;15.242;2023-07-13T12:07:46;3.03;;;1.40;;
69334;SDS011;56477;52.742;15.242;2023-07-13T12:12:45;4.13;;;1.30;;
69334;SDS011;56477;52.742;15.242;2023-07-13T12:15:13;4.25;;;1.60;;
69334;SDS011;56477;52.742;15.242;2023-07-13T12:17:39;3.13;;;1.92;;
69334;SDS011;56477;52.742;15.242;2023-07-13T12:20:14;4.90;;;2.25;;
69334;SDS011;56477;52.742;15.242;2023-07-13T12:22:47;3.55;;;1.20;;
69334;SDS011;56477;52.742;15.242;2023-07-13T12:25:13;6.07;;;3.33;;
69334;SDS011;56477;52.742;15.242;2023-07-13T12:27:40;4.03;;;2.00;;
69334;SDS011;56477;52.742;15.242;2023-07-13T12:35:23;2.10;;;1.40;;
69334;SDS011;56477;52.742;15.242;2023-07-13T12:37:50;4.00;;;1.80;;
69334;SDS011;56477;52.742;15.242;2023-07-13T12:40:21;3.63;;;1.10;;
69334;SDS011;56477;52.742;15.242;2023-07-13T12:42:59;1.90;;;1.30;;
69334;SDS011;56477;52.742;15.242;2023-07-13T12:45:29;3.00;;;1.83;;
69334;SDS011;56477;52.742;15.242;2023-07-13T12:48:03;4.22;;;1.65;;
69334;SDS011;56477;52.742;15.242;2023-07-13T12:50:40;1.50;;;1.03;;
69334;SDS011;56477;52.742;15.242;2023-07-13T12:53:14;2.10;;;1.20;;
69334;SDS011;56477;52.742;15.242;2023-07-13T12:55:54;2.67;;;1.15;;
69334;SDS011;56477;52.742;15.242;2023-07-13T12:58:26;2.10;;;1.20;;
69334;SDS011;56477;52.742;15.242;2023-07-13T13:01:02;2.38;;;1.45;;
69334;SDS011;56477;52.742;15.242;2023-07-13T13:06:03;2.38;;;1.60;;
69334;SDS011;56477;52.742;15.242;2023-07-13T13:08:45;3.20;;;1.75;;
69334;SDS011;56477;52.742;15.242;2023-07-13T13:11:14;4.25;;;1.40;;
69334;SDS011;56477;52.742;15.242;2023-07-13T13:13:42;4.40;;;1.30;;
69334;SDS011;56477;52.742;15.242;2023-07-13T13:16:51;2.50;;;1.00;;
69334;SDS011;56477;52.742;15.242;2023-07-13T13:19:01;3.72;;;1.40;;
69334;SDS011;56477;52.742;15.242;2023-07-13T13:21:37;2.17;;;1.20;;
69334;SDS011;56477;52.742;15.242;2023-07-13T13:24:08;4.35;;;1.50;;
69334;SDS011;56477;52.742;15.242;2023-07-13T13:26:36;3.42;;;1.60;;
69334;SDS011;56477;52.742;15.242;2023-07-13T13:29:08;2.30;;;1.30;;
69334;SDS011;56477;52.742;15.242;2023-07-13T13:31:40;6.50;;;1.90;;
69334;SDS011;56477;52.742;15.242;2023-07-13T13:34:10;4.73;;;1.80;;
69334;SDS011;56477;52.742;15.242;2023-07-13T13:36:37;5.03;;;1.50;;
69334;SDS011;56477;52.742;15.242;2023-07-13T13:39:26;2.38;;;1.20;;
69334;SDS011;56477;52.742;15.242;2023-07-13T13:41:53;2.45;;;1.60;;
69334;SDS011;56477;52.742;15.242;2023-07-13T13:44:20;2.83;;;0.98;;
69334;SDS011;56477;52.742;15.242;2023-07-13T13:46:47;3.67;;;1.23;;
69334;SDS011;56477;52.742;15.242;2023-07-13T13:49:17;2.70;;;1.60;;
69334;SDS011;56477;52.742;15.242;2023-07-13T13:51:46;4.53;;;1.70;;
69334;SDS011;56477;52.742;15.242;2023-07-13T13:54:13;4.10;;;1.73;;
69334;SDS011;56477;52.742;15.242;2023-07-13T13:56:41;3.58;;;1.58;;
69334;SDS011;56477;52.742;15.242;2023-07-13T13:59:09;3.67;;;1.70;;
69334;SDS011;56477;52.742;15.242;2023-07-13T14:01:35;2.92;;;1.60;;
69334;SDS011;56477;52.742;15.242;2023-07-13T14:04:01;6.07;;;1.58;;
69334;SDS011;56477;52.742;15.242;2023-07-13T14:06:27;2.63;;;1.60;;
69334;SDS011;56477;52.742;15.242;2023-07-13T14:08:54;2.50;;;1.52;;
69334;SDS011;56477;52.742;15.242;2023-07-13T14:11:22;3.83;;;1.53;;
69334;SDS011;56477;52.742;15.242;2023-07-13T14:13:50;3.40;;;1.33;;
69334;SDS011;56477;52.742;15.242;2023-07-13T14:16:26;2.78;;;1.50;;
69334;SDS011;56477;52.742;15.242;2023-07-13T14:18:55;5.40;;;1.70;;
69334;SDS011;56477;52.742;15.242;2023-07-13T14:21:23;3.15;;;1.38;;
69334;SDS011;56477;52.742;15.242;2023-07-13T14:23:50;3.03;;;1.35;;
69334;SDS011;56477;52.742;15.242;2023-07-13T14:26:21;4.05;;;1.70;;
69334;SDS011;56477;52.742;15.242;2023-07-13T14:28:53;5.17;;;1.60;;
69334;SDS011;56477;52.742;15.242;2023-07-13T14:31:21;2.07;;;1.20;;
69334;SDS011;56477;52.742;15.242;2023-07-13T14:33:48;2.78;;;1.30;;
69334;SDS011;56477;52.742;15.242;2023-07-13T14:36:25;3.75;;;1.83;;
69334;SDS011;56477;52.742;15.242;2023-07-13T14:38:55;3.25;;;2.20;;
69334;SDS011;56477;52.742;15.242;2023-07-13T14:41:22;10.13;;;5.97;;
69334;SDS011;56477;52.742;15.242;2023-07-13T14:43:48;4.93;;;2.40;;
69334;SDS011;56477;52.742;15.242;2023-07-13T14:46:33;3.25;;;1.90;;
69334;SDS011;56477;52.742;15.242;2023-07-13T14:49:24;3.85;;;1.70;;
69334;SDS011;56477;52.742;15.242;2023-07-13T14:51:59;3.25;;;1.25;;
69334;SDS011;56477;52.742;15.242;2023-07-13T14:54:27;2.88;;;1.63;;
69334;SDS011;56477;52.742;15.242;2023-07-13T14:56:53;4.20;;;1.80;;
69334;SDS011;56477;52.742;15.242;2023-07-13T14:59:19;2.93;;;1.93;;
69334;SDS011;56477;52.742;15.242;2023-07-13T15:01:45;6.67;;;1.80;;
69334;SDS011;56477;52.742;15.242;2023-07-13T15:04:13;4.25;;;1.80;;
69334;SDS011;56477;52.742;15.242;2023-07-13T15:07:00;4.47;;;2.17;;
69334;SDS011;56477;52.742;15.242;2023-07-13T15:09:28;3.67;;;2.03;;
69334;SDS011;56477;52.742;15.242;2023-07-13T15:11:57;4.60;;;1.60;;
69334;SDS011;56477;52.742;15.242;2023-07-13T15:14:24;2.67;;;1.55;;
69334;SDS011;56477;52.742;15.242;2023-07-13T15:16:51;3.00;;;1.47;;
69334;SDS011;56477;52.742;15.242;2023-07-13T15:19:19;2.83;;;2.00;;
69334;SDS011;56477;52.742;15.242;2023-07-13T15:21:46;4.63;;;1.73;;
69334;SDS011;56477;52.742;15.242;2023-07-13T15:24:14;3.53;;;1.88;;
69334;SDS011;56477;52.742;15.242;2023-07-13T15:26:40;3.97;;;1.90;;
69334;SDS011;56477;52.742;15.242;2023-07-13T15:29:11;3.72;;;2.00;;
69334;SDS011;56477;52.742;15.242;2023-07-13T15:31:37;2.88;;;1.40;;
69334;SDS011;56477;52.742;15.242;2023-07-13T15:34:09;3.63;;;1.60;;
69334;SDS011;56477;52.742;15.242;2023-07-13T15:36:37;3.07;;;1.47;;
69334;SDS011;56477;52.742;15.242;2023-07-13T15:39:03;2.47;;;1.55;;
69334;SDS011;56477;52.742;15.242;2023-07-13T15:41:29;3.55;;;1.80;;
69334;SDS011;56477;52.742;15.242;2023-07-13T15:43:57;3.50;;;1.83;;
69334;SDS011;56477;52.742;15.242;2023-07-13T15:46:25;2.65;;;1.65;;